Time;durP1;ratioP1;P1;durP2;ratioP2;P2;SDS_P1;SDS_P2;PMS_P1;PMS_P2;Temp;Humidity;BMP_temperature;BMP_pressure;BME280_temperature;BME280_humidity;BME280_pressure;Samples;Min_cycle;Max_cycle;Signal;HPM_P1;HPM_P2
2021/04/10 00:00:57;;;;;;;;;;;;;;;;;;5017211;28;19972;-86
2021/04/10 00:03:22;;;;;;;;;;;;;;;;;;5020328;28;19930;-87
2021/04/10 00:05:48;;;;;;;;;;;;;;;;;;5020255;28;19909;-86
2021/04/10 00:08:13;;;;;;;;;;;;;;;;;;5020471;28;19908;-84
2021/04/10 00:10:38;;;;;;;;;;;;;;;;;;5053353;28;19928;-84
2021/04/10 00:13:04;;;;;;;;;;;;;;;;;;5053627;28;19916;-84
2021/04/10 00:15:29;;;;;;;;;;;;;;;;;;5020123;28;19952;-84
2021/04/10 00:17:55;;;;;;;;;;;;;;;;;;5037212;28;19909;-84
2021/04/10 00:20:23;;;;;;;;;;;;;;;;;;5036487;28;20011;-84
2021/04/10 00:22:48;;;;;;;;;;;;;;;;;;5020169;28;19916;-83
2021/04/10 00:25:14;;;;;;;;;;;;;;;;;;5036680;28;19920;-83
2021/04/10 00:27:39;;;;;;;;;;;;;;;;;;5053222;28;19909;-83
2021/04/10 00:30:05;;;;;;;;;;;;;;;;;;5033147;28;19931;-84
2021/04/10 00:32:30;;;;;;;;;;;;;;;;;;5033000;28;19909;-84
2021/04/10 00:34:56;;;;;;;;;;;;;;;;;;5033112;28;19932;-83
2021/04/10 00:37:21;;;;;;;;;;;;;;;;;;5033037;28;19909;-83
2021/04/10 00:39:46;;;;;;;;;;;;;;;;;;5049444;28;20028;-83
2021/04/10 00:42:11;;;;;;;;;;;;;;;;;;5049373;28;19958;-85
2021/04/10 00:44:37;;;;;;;;;;;;;;;;;;5016647;28;19987;-83
2021/04/10 00:47:02;;;;;;;;;;;;;;;;;;5033096;28;19913;-84
2021/04/10 00:49:27;;;;;;;;;;;;;;;;;;5015907;28;19917;-83
2021/04/10 00:51:53;;;;;;;;;;;;;;;;;;5016384;28;19952;-83
2021/04/10 00:54:18;;;;;;;;;;;;;;;;;;5016302;28;19909;-83
2021/04/10 00:56:43;;;;;;;;;;;;;;;;;;5033118;28;20432;-83
2021/04/10 00:59:08;;;;;;;;;;;;;;;;;;5032862;28;19909;-84
2021/04/10 01:01:34;;;;;;;;;;;;;;;;;;5051150;28;20354;-83
2021/04/10 01:03:59;;;;;;;;;;;;;;;;;;5052363;28;19915;-83
2021/04/10 01:06:24;;;;;;;;;;;;;;;;;;5052500;28;19935;-83
2021/04/10 01:08:50;;;;;;;;;;;;;;;;;;5019337;28;19909;-83
2021/04/10 01:11:24;;;;;;;;;;;;;;;;;;5019082;28;19908;-83
2021/04/10 01:14:04;;;;;;;;;;;;;;;;;;5051939;28;19913;-83
2021/04/10 01:16:34;;;;;;;;;;;;;;;;;;5019342;28;19912;-82
2021/04/10 01:19:04;;;;;;;;;;;;;;;;;;5018970;28;19952;-84
2021/04/10 01:21:42;;;;;;;;;;;;;;;;;;5019198;28;19958;-83
2021/04/10 01:24:10;;;;;;;;;;;;;;;;;;5052719;28;19913;-83
2021/04/10 01:26:48;;;;;;;;;;;;;;;;;;5052121;28;19908;-82
2021/04/10 01:29:13;;;;;;;;;;;;;;;;;;5051705;28;20367;-82
2021/04/10 01:31:40;;;;;;;;;;;;;;;;;;5018387;28;19908;-83
2021/04/10 01:34:07;;;;;;;;;;;;;;;;;;5035192;28;19938;-82
2021/04/10 01:36:33;;;;;;;;;;;;;;;;;;5018621;28;20008;-82
2021/04/10 01:38:59;;;;;;;;;;;;;;;;;;5018886;28;19916;-83
2021/04/10 01:41:25;;;;;;;;;;;;;;;;;;5051544;28;19950;-83
2021/04/10 01:43:50;;;;;;;;;;;;;;;;;;5052204;28;19916;-82
2021/04/10 01:46:16;;;;;;;;;;;;;;;;;;5035321;28;19916;-83
2021/04/10 01:48:42;;;;;;;;;;;;;;;;;;5034792;28;19909;-83
2021/04/10 01:51:08;;;;;;;;;;;;;;;;;;5051744;28;19936;-83
2021/04/10 01:53:33;;;;;;;;;;;;;;;;;;5018589;28;20362;-82
2021/04/10 01:55:59;;;;;;;;;;;;;;;;;;5051442;28;19913;-83
2021/04/10 01:58:24;;;;;;;;;;;;;;;;;;5018109;28;19909;-83
2021/04/10 02:00:49;;;;;;;;;;;;;;;;;;5051248;28;19955;-83
2021/04/10 02:03:20;;;;;;;;;;;;;;;;;;5034156;28;19952;-83
2021/04/10 02:05:46;;;;;;;;;;;;;;;;;;5035386;28;19909;-83
2021/04/10 02:08:12;;;;;;;;;;;;;;;;;;5051382;28;19916;-82
2021/04/10 02:10:37;;;;;;;;;;;;;;;;;;5050917;28;19915;-82
2021/04/10 02:13:05;;;;;;;;;;;;;;;;;;5018445;28;20410;-83
2021/04/10 02:15:30;;;;;;;;;;;;;;;;;;5034747;28;19967;-83
2021/04/10 02:17:58;;;;;;;;;;;;;;;;;;5017983;28;20294;-82
2021/04/10 02:20:24;;;;;;;;;;;;;;;;;;5051174;28;19912;-82
2021/04/10 02:22:55;;;;;;;;;;;;;;;;;;5018243;28;19909;-82
2021/04/10 02:25:21;;;;;;;;;;;;;;;;;;5035639;28;20264;-82
2021/04/10 02:27:46;;;;;;;;;;;;;;;;;;5017890;28;19918;-82
2021/04/10 02:30:14;;;;;;;;;;;;;;;;;;5030676;28;19987;-82
2021/04/10 02:32:44;;;;;;;;;;;;;;;;;;5030651;28;20027;-82
2021/04/10 02:35:14;;;;;;;;;;;;;;;;;;5031339;28;19909;-83
2021/04/10 02:37:39;;;;;;;;;;;;;;;;;;5047760;28;20282;-82
2021/04/10 02:40:05;;;;;;;;;;;;;;;;;;5014514;28;19916;-83
2021/04/10 02:42:30;;;;;;;;;;;;;;;;;;5014267;28;20400;-85
2021/04/10 02:44:55;;;;;;;;;;;;;;;;;;5014588;28;19913;-84
2021/04/10 02:47:22;;;;;;;;;;;;;;;;;;5030542;28;19995;-84
2021/04/10 02:49:55;;;;;;;;;;;;;;;;;;5014457;28;19958;-85
2021/04/10 02:52:25;;;;;;;;;;;;;;;;;;5030985;28;20141;-83
2021/04/10 02:54:50;;;;;;;;;;;;;;;;;;5014182;28;19909;-83
2021/04/10 02:57:16;;;;;;;;;;;;;;;;;;5030937;28;19916;-82
2021/04/10 02:59:43;;;;;;;;;;;;;;;;;;5030447;28;19909;-83
2021/04/10 03:02:09;;;;;;;;;;;;;;;;;;5030575;28;19920;-83
2021/04/10 03:04:34;;;;;;;;;;;;;;;;;;5034020;28;19912;-83
2021/04/10 03:07:00;;;;;;;;;;;;;;;;;;5017659;28;19916;-82
2021/04/10 03:09:29;;;;;;;;;;;;;;;;;;5033663;28;20014;-82
2021/04/10 03:11:54;;;;;;;;;;;;;;;;;;5033692;28;20412;-83
2021/04/10 03:14:19;;;;;;;;;;;;;;;;;;5033989;28;19913;-83
2021/04/10 03:16:45;;;;;;;;;;;;;;;;;;5017749;28;20282;-82
2021/04/10 03:19:10;;;;;;;;;;;;;;;;;;5017485;28;20343;-82
2021/04/10 03:21:37;;;;;;;;;;;;;;;;;;5017708;28;19935;-83
2021/04/10 03:24:03;;;;;;;;;;;;;;;;;;5034039;28;19919;-82
2021/04/10 03:26:28;;;;;;;;;;;;;;;;;;5037201;28;19909;-82
2021/04/10 03:28:54;;;;;;;;;;;;;;;;;;5037559;28;20374;-83
2021/04/10 03:31:19;;;;;;;;;;;;;;;;;;5037385;28;19908;-83
2021/04/10 03:33:44;;;;;;;;;;;;;;;;;;5037545;28;19915;-83
2021/04/10 03:36:09;;;;;;;;;;;;;;;;;;5021257;28;20263;-83
2021/04/10 03:38:35;;;;;;;;;;;;;;;;;;5020836;28;19908;-82
2021/04/10 03:41:00;;;;;;;;;;;;;;;;;;5020431;28;19913;-82
2021/04/10 03:43:25;;;;;;;;;;;;;;;;;;5020523;28;19959;-82
2021/04/10 03:45:51;;;;;;;;;;;;;;;;;;5054253;28;19913;-82
2021/04/10 03:48:17;;;;;;;;;;;;;;;;;;5020596;28;20359;-82
2021/04/10 03:50:42;;;;;;;;;;;;;;;;;;5020833;28;19913;-83
2021/04/10 03:53:08;;;;;;;;;;;;;;;;;;5020599;28;19917;-83
2021/04/10 03:55:33;;;;;;;;;;;;;;;;;;5053614;28;19908;-83
2021/04/10 03:57:59;;;;;;;;;;;;;;;;;;5020362;28;19917;-82
2021/04/10 04:00:24;;;;;;;;;;;;;;;;;;5053282;28;19917;-82
2021/04/10 04:02:50;;;;;;;;;;;;;;;;;;5053618;28;19959;-84
2021/04/10 04:05:15;;;;;;;;;;;;;;;;;;5020610;28;19909;-85
2021/04/10 04:07:40;;;;;;;;;;;;;;;;;;5037003;28;19909;-85
2021/04/10 04:10:06;;;;;;;;;;;;;;;;;;5053121;28;19909;-84
2021/04/10 04:12:31;;;;;;;;;;;;;;;;;;5037000;28;20351;-85
2021/04/10 04:14:56;;;;;;;;;;;;;;;;;;5053478;28;20409;-84
2021/04/10 04:17:22;;;;;;;;;;;;;;;;;;5036771;28;19916;-84
2021/04/10 04:19:47;;;;;;;;;;;;;;;;;;5070034;28;19952;-84
2021/04/10 04:22:12;;;;;;;;;;;;;;;;;;5036616;28;20363;-84
2021/04/10 04:24:37;;;;;;;;;;;;;;;;;;5036667;28;20268;-84
2021/04/10 04:27:04;;;;;;;;;;;;;;;;;;5036519;28;19920;-82
2021/04/10 04:29:29;;;;;;;;;;;;;;;;;;5053199;28;19913;-82
2021/04/10 04:31:54;;;;;;;;;;;;;;;;;;5019818;28;19939;-83
2021/04/10 04:34:19;;;;;;;;;;;;;;;;;;5053085;28;19943;-83
2021/04/10 04:36:45;;;;;;;;;;;;;;;;;;5036146;28;19958;-83
2021/04/10 04:39:10;;;;;;;;;;;;;;;;;;5019492;28;19916;-82
2021/04/10 04:41:35;;;;;;;;;;;;;;;;;;5035712;28;19919;-82
2021/04/10 04:44:00;;;;;;;;;;;;;;;;;;5036289;28;19917;-82
2021/04/10 04:46:26;;;;;;;;;;;;;;;;;;5036675;28;19974;-82
2021/04/10 04:48:51;;;;;;;;;;;;;;;;;;5019624;28;20350;-82
2021/04/10 04:51:17;;;;;;;;;;;;;;;;;;5019677;28;19916;-82
2021/04/10 04:53:42;;;;;;;;;;;;;;;;;;5019452;28;19915;-82
2021/04/10 04:56:08;;;;;;;;;;;;;;;;;;5052373;28;20007;-82
2021/04/10 04:58:33;;;;;;;;;;;;;;;;;;5035864;28;19913;-82
2021/04/10 05:00:58;;;;;;;;;;;;;;;;;;5019284;28;20270;-82
2021/04/10 05:03:23;;;;;;;;;;;;;;;;;;5019034;28;19912;-82
2021/04/10 05:05:49;;;;;;;;;;;;;;;;;;5019340;28;19909;-82
2021/04/10 05:08:14;;;;;;;;;;;;;;;;;;5035630;28;19909;-82
2021/04/10 05:10:39;;;;;;;;;;;;;;;;;;5018928;28;20331;-81
2021/04/10 05:13:04;;;;;;;;;;;;;;;;;;5035803;28;19952;-83
2021/04/10 05:15:30;;;;;;;;;;;;;;;;;;5035519;28;19917;-83
2021/04/10 05:17:55;;;;;;;;;;;;;;;;;;5018995;28;19915;-83
2021/04/10 05:20:20;;;;;;;;;;;;;;;;;;5019357;28;20015;-86
2021/04/10 05:22:51;;;;;;;;;;;;;;;;;;5019042;28;19958;-85
2021/04/10 05:25:16;;;;;;;;;;;;;;;;;;5035345;28;19912;-85
2021/04/10 05:27:41;;;;;;;;;;;;;;;;;;5035465;28;19909;-85
2021/04/10 05:30:07;;;;;;;;;;;;;;;;;;5031975;28;19944;-84
2021/04/10 05:32:35;;;;;;;;;;;;;;;;;;5031812;28;19908;-84
2021/04/10 05:35:00;;;;;;;;;;;;;;;;;;5031843;28;20256;-84
2021/04/10 05:37:25;;;;;;;;;;;;;;;;;;5048578;28;19913;-84
2021/04/10 05:39:50;;;;;;;;;;;;;;;;;;5031902;28;19956;-85
2021/04/10 05:42:16;;;;;;;;;;;;;;;;;;5031575;28;19936;-85
2021/04/10 05:44:41;;;;;;;;;;;;;;;;;;5015547;28;19955;-83
2021/04/10 05:47:06;;;;;;;;;;;;;;;;;;5014793;28;19909;-83
2021/04/10 05:49:31;;;;;;;;;;;;;;;;;;5048009;28;19908;-83
2021/04/10 05:51:57;;;;;;;;;;;;;;;;;;5031686;28;19913;-83
2021/04/10 05:54:22;;;;;;;;;;;;;;;;;;5014980;28;20356;-84
2021/04/10 05:56:48;;;;;;;;;;;;;;;;;;5031570;28;19928;-84
2021/04/10 05:59:13;;;;;;;;;;;;;;;;;;5014907;28;19959;-83
2021/04/10 06:01:38;;;;;;;;;;;;;;;;;;5031346;28;19959;-83
2021/04/10 06:04:04;;;;;;;;;;;;;;;;;;5014364;28;20282;-84
2021/04/10 06:06:30;;;;;;;;;;;;;;;;;;5018172;28;19996;-83
2021/04/10 06:08:55;;;;;;;;;;;;;;;;;;5050981;28;20004;-83
2021/04/10 06:11:20;;;;;;;;;;;;;;;;;;5018203;28;19999;-83
2021/04/10 06:13:45;;;;;;;;;;;;;;;;;;5034535;28;19917;-84
2021/04/10 06:16:11;;;;;;;;;;;;;;;;;;5018346;28;19913;-84
2021/04/10 06:18:36;;;;;;;;;;;;;;;;;;5018404;28;19931;-84
2021/04/10 06:21:02;;;;;;;;;;;;;;;;;;5018241;28;19948;-84
2021/04/10 06:23:27;;;;;;;;;;;;;;;;;;5017874;28;19919;-84
2021/04/10 06:25:52;;;;;;;;;;;;;;;;;;5017881;28;20375;-84
2021/04/10 06:28:17;;;;;;;;;;;;;;;;;;5018194;28;19916;-85
2021/04/10 06:30:43;;;;;;;;;;;;;;;;;;5014412;28;20004;-84
2021/04/10 06:33:08;;;;;;;;;;;;;;;;;;5031335;28;19913;-84
2021/04/10 06:35:33;;;;;;;;;;;;;;;;;;5031442;28;19936;-85
2021/04/10 06:37:58;;;;;;;;;;;;;;;;;;5014786;28;19916;-85
2021/04/10 06:40:24;;;;;;;;;;;;;;;;;;5031222;28;20397;-85
2021/04/10 06:42:49;;;;;;;;;;;;;;;;;;5014759;28;19920;-85
2021/04/10 06:45:14;;;;;;;;;;;;;;;;;;5031275;28;20068;-86
2021/04/10 06:47:40;;;;;;;;;;;;;;;;;;5014839;28;20256;-85
2021/04/10 06:50:05;;;;;;;;;;;;;;;;;;5031314;28;19915;-85
2021/04/10 06:52:31;;;;;;;;;;;;;;;;;;5014542;28;20312;-85
2021/04/10 06:54:57;;;;;;;;;;;;;;;;;;5014828;28;20341;-85
2021/04/10 06:57:22;;;;;;;;;;;;;;;;;;5031291;28;19909;-86
2021/04/10 06:59:49;;;;;;;;;;;;;;;;;;5034137;28;19952;-86
2021/04/10 07:02:14;;;;;;;;;;;;;;;;;;5019665;28;19992;-86
2021/04/10 07:04:39;;;;;;;;;;;;;;;;;;5038528;28;19999;-85
2021/04/10 07:07:05;;;;;;;;;;;;;;;;;;5021883;28;19908;-86
2021/04/10 07:09:33;;;;;;;;;;;;;;;;;;5021906;28;19962;-86
2021/04/10 07:11:58;;;;;;;;;;;;;;;;;;5022081;28;19920;-87
2021/04/10 07:14:23;;;;;;;;;;;;;;;;;;5035351;28;19982;-87
2021/04/10 07:16:48;;;;;;;;;;;;;;;;;;5019302;28;19916;-87
2021/04/10 07:19:15;;;;;;;;;;;;;;;;;;5035362;28;19909;-87
2021/04/10 07:21:40;;;;;;;;;;;;;;;;;;5035490;28;19912;-87
2021/04/10 07:24:06;;;;;;;;;;;;;;;;;;5035505;28;20004;-87
2021/04/10 07:26:47;;;;;;;;;;;;;;;;;;5035054;28;19963;-87
2021/04/10 07:29:28;;;;;;;;;;;;;;;;;;5035506;28;19909;-87
2021/04/10 07:31:53;;;;;;;;;;;;;;;;;;5018351;28;19913;-88
2021/04/10 07:34:21;;;;;;;;;;;;;;;;;;5035107;28;20275;-88
2021/04/10 07:36:56;;;;;;;;;;;;;;;;;;5051871;28;20363;-88
2021/04/10 07:39:22;;;;;;;;;;;;;;;;;;5034945;28;20441;-88
2021/04/10 07:42:00;;;;;;;;;;;;;;;;;;5034823;28;19963;-88
2021/04/10 07:44:35;;;;;;;;;;;;;;;;;;5035386;28;19936;-88
2021/04/10 07:47:04;;;;;;;;;;;;;;;;;;5018757;28;19916;-88
2021/04/10 07:49:29;;;;;;;;;;;;;;;;;;5018625;28;19916;-88
2021/04/10 07:51:56;;;;;;;;;;;;;;;;;;5050916;28;19909;-85
2021/04/10 07:54:22;;;;;;;;;;;;;;;;;;5018072;28;19909;-86
2021/04/10 07:56:54;;;;;;;;;;;;;;;;;;5051439;28;19932;-85
2021/04/10 07:59:20;;;;;;;;;;;;;;;;;;5017821;28;20267;-85
2021/04/10 08:01:45;;;;;;;;;;;;;;;;;;5017516;28;19959;-85
2021/04/10 08:04:13;;;;;;;;;;;;;;;;;;5034124;28;19915;-88
2021/04/10 08:06:51;;;;;;;;;;;;;;;;;;5054417;28;19958;-88
2021/04/10 08:09:23;;;;;;;;;;;;;;;;;;5020781;28;19909;-88
2021/04/10 08:11:51;;;;;;;;;;;;;;;;;;5036591;28;19958;-88
2021/04/10 08:14:16;;;;;;;;;;;;;;;;;;5021005;28;19912;-87
2021/04/10 08:16:45;;;;;;;;;;;;;;;;;;5020926;28;19979;-88
2021/04/10 08:19:10;;;;;;;;;;;;;;;;;;5037104;28;20329;-88
2021/04/10 08:21:37;;;;;;;;;;;;;;;;;;5020843;28;19912;-88
2021/04/10 08:24:03;;;;;;;;;;;;;;;;;;5037279;28;20292;-88
2021/04/10 08:26:29;;;;;;;;;;;;;;;;;;5020745;28;19917;-88
2021/04/10 08:28:54;;;;;;;;;;;;;;;;;;5020813;28;20427;-89
2021/04/10 08:31:19;;;;;;;;;;;;;;;;;;5020340;28;19915;-89
2021/04/10 08:33:44;;;;;;;;;;;;;;;;;;5020888;28;19932;-89
2021/04/10 08:36:10;;;;;;;;;;;;;;;;;;5020957;28;19992;-89
2021/04/10 08:38:36;;;;;;;;;;;;;;;;;;5020563;28;20247;-88
2021/04/10 08:41:03;;;;;;;;;;;;;;;;;;5020419;28;20239;-90
2021/04/10 08:43:30;;;;;;;;;;;;;;;;;;5020488;28;20007;-89
2021/04/10 08:45:55;;;;;;;;;;;;;;;;;;5020923;28;19913;-89
2021/04/10 08:48:21;;;;;;;;;;;;;;;;;;5020377;28;20274;-88
2021/04/10 08:50:46;;;;;;;;;;;;;;;;;;5037254;28;19958;-89
2021/04/10 08:53:22;;;;;;;;;;;;;;;;;;5020685;28;19908;-88
2021/04/10 08:55:50;;;;;;;;;;;;;;;;;;5020285;28;19916;-89
2021/04/10 08:58:17;;;;;;;;;;;;;;;;;;5020968;28;20366;-88
2021/04/10 09:00:43;;;;;;;;;;;;;;;;;;5054306;28;19913;-88
2021/04/10 09:03:08;;;;;;;;;;;;;;;;;;5019595;28;19917;-87
2021/04/10 09:05:46;;;;;;;;;;;;;;;;;;5020167;28;19912;-88
2021/04/10 09:08:38;;;;;;;;;;;;;;;;;;5036492;28;19935;-88
2021/04/10 09:11:04;;;;;;;;;;;;;;;;;;5032263;28;20374;-88
2021/04/10 09:13:30;;;;;;;;;;;;;;;;;;5036393;28;19912;-88
2021/04/10 09:16:14;;;;;;;;;;;;;;;;;;5036190;28;20381;-88
2021/04/10 09:18:40;;;;;;;;;;;;;;;;;;5036143;28;19962;-88
2021/04/10 09:21:09;;;;;;;;;;;;;;;;;;5019504;28;19915;-88
2021/04/10 09:23:34;;;;;;;;;;;;;;;;;;5018968;28;19909;-88
2021/04/10 09:26:06;;;;;;;;;;;;;;;;;;5019626;28;19916;-89
2021/04/10 09:28:33;;;;;;;;;;;;;;;;;;5036283;28;20273;-88
2021/04/10 09:31:01;;;;;;;;;;;;;;;;;;5032982;28;19909;-88
2021/04/10 09:33:32;;;;;;;;;;;;;;;;;;5032393;28;19913;-87
2021/04/10 09:35:58;;;;;;;;;;;;;;;;;;5016178;28;19909;-89
2021/04/10 09:38:38;;;;;;;;;;;;;;;;;;5016002;28;19920;-87
2021/04/10 09:41:03;;;;;;;;;;;;;;;;;;5048722;28;19917;-87
2021/04/10 09:44:21;;;;;;;;;;;;;;;;;;5110433;27;19912;-87
2021/04/10 09:46:52;;;;;;;;;;;;;;;;;;5126380;28;19916;-86
2021/04/10 09:49:39;;;;;;;;;;;;;;;;;;5109270;28;19926;-87
2021/04/10 09:52:04;;;;;;;;;;;;;;;;;;5094565;28;20267;-87
2021/04/10 09:54:30;;;;;;;;;;;;;;;;;;5072183;28;19966;-88
2021/04/10 09:56:55;;;;;;;;;;;;;;;;;;5072015;28;19966;-87
2021/04/10 09:59:21;;;;;;;;;;;;;;;;;;5071790;28;19919;-87
2021/04/10 10:01:47;;;;;;;;;;;;;;;;;;5068254;28;19913;-87
2021/04/10 10:04:13;;;;;;;;;;;;;;;;;;5085024;28;19934;-87
2021/04/10 10:06:43;;;;;;;;;;;;;;;;;;5055574;28;19917;-88
2021/04/10 10:09:24;;;;;;;;;;;;;;;;;;5072452;28;19939;-87
2021/04/10 10:11:50;;;;;;;;;;;;;;;;;;5071891;28;19916;-88
2021/04/10 10:14:18;;;;;;;;;;;;;;;;;;5055592;28;19919;-88
2021/04/10 10:16:43;;;;;;;;;;;;;;;;;;5055168;28;19970;-88
2021/04/10 10:19:14;;;;;;;;;;;;;;;;;;5071971;28;19912;-91
2021/04/10 10:21:40;;;;;;;;;;;;;;;;;;5072261;28;19990;-89
2021/04/10 10:24:06;;;;;;;;;;;;;;;;;;5089054;28;19962;-89
2021/04/10 10:26:33;;;;;;;;;;;;;;;;;;5055561;28;19912;-90
2021/04/10 10:29:05;;;;;;;;;;;;;;;;;;5057391;28;20325;-91
2021/04/10 10:31:31;;;;;;;;;;;;;;;;;;5108532;28;19916;-90
2021/04/10 10:34:06;;;;;;;;;;;;;;;;;;5109056;28;19919;-91
2021/04/10 10:36:32;;;;;;;;;;;;;;;;;;5108819;28;20432;-91
2021/04/10 10:38:57;;;;;;;;;;;;;;;;;;5109158;28;19912;-93
2021/04/10 10:41:23;;;;;;;;;;;;;;;;;;5108933;28;20057;-92
2021/04/10 10:43:48;;;;;;;;;;;;;;;;;;5125679;28;20384;-91
2021/04/10 10:46:17;;;;;;;;;;;;;;;;;;5126003;28;19969;-91
2021/04/10 10:48:43;;;;;;;;;;;;;;;;;;5108897;28;19912;-92
2021/04/10 10:51:11;;;;;;;;;;;;;;;;;;5108530;28;19916;-90
2021/04/10 10:53:44;;;;;;;;;;;;;;;;;;5123839;28;19915;-89
2021/04/10 10:56:10;;;;;;;;;;;;;;;;;;5094513;28;19963;-89
2021/04/10 10:58:41;;;;;;;;;;;;;;;;;;5094470;28;20344;-87
2021/04/10 11:01:13;;;;;;;;;;;;;;;;;;5111564;28;20017;-88
2021/04/10 11:03:42;;;;;;;;;;;;;;;;;;5066435;28;19952;-88
2021/04/10 11:06:08;;;;;;;;;;;;;;;;;;5074407;28;19913;-88
2021/04/10 11:08:33;;;;;;;;;;;;;;;;;;5040877;28;19923;-88
2021/04/10 11:10:58;;;;;;;;;;;;;;;;;;5057689;28;19959;-90
2021/04/10 11:13:24;;;;;;;;;;;;;;;;;;5040794;28;20337;-90
2021/04/10 11:15:49;;;;;;;;;;;;;;;;;;5041243;28;19919;-90
2021/04/10 11:18:44;;;;;;;;;;;;;;;;;;5041499;28;19920;-90
2021/04/10 11:21:18;;;;;;;;;;;;;;;;;;5049072;28;19912;-90
2021/04/10 11:23:55;;;;;;;;;;;;;;;;;;5041248;28;20382;-89
2021/04/10 11:26:40;;;;;;;;;;;;;;;;;;5074353;28;19913;-89
2021/04/10 11:29:31;;;;;;;;;;;;;;;;;;5060207;28;19912;-89
2021/04/10 11:32:16;;;;;;;;;;;;;;;;;;5075432;28;19916;-88
2021/04/10 11:34:48;;;;;;;;;;;;;;;;;;5128518;27;19912;-87
2021/04/10 11:37:13;;;;;;;;;;;;;;;;;;5094203;28;19912;-88
2021/04/10 11:39:57;;;;;;;;;;;;;;;;;;5093741;28;20046;-87
2021/04/10 11:42:28;;;;;;;;;;;;;;;;;;5093245;28;19920;-88
2021/04/10 11:44:54;;;;;;;;;;;;;;;;;;5093858;28;19972;-88
2021/04/10 11:47:24;;;;;;;;;;;;;;;;;;5093924;28;19912;-88
2021/04/10 11:49:49;;;;;;;;;;;;;;;;;;5110716;28;19917;-88
2021/04/10 11:52:14;;;;;;;;;;;;;;;;;;5110676;28;19918;-87
2021/04/10 11:54:39;;;;;;;;;;;;;;;;;;5093519;28;20366;-87
2021/04/10 11:57:05;;;;;;;;;;;;;;;;;;5093668;28;19912;-89
2021/04/10 11:59:31;;;;;;;;;;;;;;;;;;5093817;28;20007;-89
2021/04/10 12:02:00;;;;;;;;;;;;;;;;;;5093468;28;19912;-89
2021/04/10 12:04:26;;;;;;;;;;;;;;;;;;5060793;28;19935;-88
2021/04/10 12:06:51;;;;;;;;;;;;;;;;;;5058900;28;20374;-88
2021/04/10 12:09:16;;;;;;;;;;;;;;;;;;5060015;28;19912;-88
2021/04/10 12:11:42;;;;;;;;;;;;;;;;;;5076253;28;20006;-88
2021/04/10 12:14:08;;;;;;;;;;;;;;;;;;5071983;28;19956;-89
2021/04/10 12:16:37;;;;;;;;;;;;;;;;;;5039756;28;19964;-88
2021/04/10 12:19:03;;;;;;;;;;;;;;;;;;5039679;28;20011;-87
2021/04/10 12:21:28;;;;;;;;;;;;;;;;;;5072536;28;19928;-87
2021/04/10 12:23:54;;;;;;;;;;;;;;;;;;5072178;28;20067;-86
2021/04/10 12:26:22;;;;;;;;;;;;;;;;;;5039967;28;19920;-88
2021/04/10 12:28:48;;;;;;;;;;;;;;;;;;5039980;28;19916;-88
2021/04/10 12:31:13;;;;;;;;;;;;;;;;;;5092743;28;19916;-88
2021/04/10 12:33:39;;;;;;;;;;;;;;;;;;5093020;28;19964;-89
2021/04/10 12:36:04;;;;;;;;;;;;;;;;;;5093180;28;20384;-89
2021/04/10 12:38:29;;;;;;;;;;;;;;;;;;5092795;28;20555;-90
2021/04/10 12:40:55;;;;;;;;;;;;;;;;;;5092802;28;19919;-92
2021/04/10 12:43:20;;;;;;;;;;;;;;;;;;5092684;28;19930;-92
2021/04/10 12:45:45;;;;;;;;;;;;;;;;;;5092995;28;19962;-92
2021/04/10 12:48:11;;;;;;;;;;;;;;;;;;5093053;28;19912;-92
2021/04/10 12:50:38;;;;;;;;;;;;;;;;;;5092664;28;19920;-91
2021/04/10 12:53:03;;;;;;;;;;;;;;;;;;5092884;28;19912;-91
2021/04/10 12:55:29;;;;;;;;;;;;;;;;;;5092574;28;19912;-92
2021/04/10 12:57:54;;;;;;;;;;;;;;;;;;5093084;28;19947;-89
2021/04/10 13:00:20;;;;;;;;;;;;;;;;;;5109185;28;19923;-88
2021/04/10 13:02:45;;;;;;;;;;;;;;;;;;5096147;28;19912;-89
2021/04/10 13:05:11;;;;;;;;;;;;;;;;;;5053840;28;20449;-85
2021/04/10 13:07:36;;;;;;;;;;;;;;;;;;5071550;28;20476;-88
2021/04/10 13:10:02;;;;;;;;;;;;;;;;;;5037674;28;19974;-88
2021/04/10 13:12:27;;;;;;;;;;;;;;;;;;5038197;28;19920;-86
2021/04/10 13:14:54;;;;;;;;;;;;;;;;;;5055015;28;20374;-86
2021/04/10 13:17:20;;;;;;;;;;;;;;;;;;5042622;28;19948;-85
2021/04/10 13:19:47;;;;;;;;;;;;;;;;;;5069018;28;19999;-87
2021/04/10 13:22:13;;;;;;;;;;;;;;;;;;5067684;28;19917;-86
2021/04/10 13:24:38;;;;;;;;;;;;;;;;;;5051225;28;19929;-86
2021/04/10 13:27:04;;;;;;;;;;;;;;;;;;5051957;28;19913;-86
2021/04/10 13:29:30;;;;;;;;;;;;;;;;;;5052094;28;20003;-88
2021/04/10 13:31:55;;;;;;;;;;;;;;;;;;5051309;28;19919;-87
2021/04/10 13:34:20;;;;;;;;;;;;;;;;;;5054473;28;19920;-86
2021/04/10 13:36:47;;;;;;;;;;;;;;;;;;5054376;28;20010;-86
2021/04/10 13:39:12;;;;;;;;;;;;;;;;;;5072047;28;19920;-87
2021/04/10 13:41:40;;;;;;;;;;;;;;;;;;5055618;28;19916;-88
2021/04/10 13:44:09;;;;;;;;;;;;;;;;;;5055941;28;19921;-87
2021/04/10 13:46:37;;;;;;;;;;;;;;;;;;5055349;28;20374;-88
2021/04/10 13:49:03;;;;;;;;;;;;;;;;;;5072543;28;19912;-85
2021/04/10 13:51:31;;;;;;;;;;;;;;;;;;5072831;28;19916;-88
2021/04/10 13:53:56;;;;;;;;;;;;;;;;;;5054620;28;20336;-85
2021/04/10 13:56:21;;;;;;;;;;;;;;;;;;5069521;28;19951;-85
2021/04/10 13:58:47;;;;;;;;;;;;;;;;;;5053639;28;19912;-88
2021/04/10 14:01:13;;;;;;;;;;;;;;;;;;5052902;28;20601;-83
2021/04/10 14:03:38;;;;;;;;;;;;;;;;;;5070321;28;19912;-84
2021/04/10 14:06:07;;;;;;;;;;;;;;;;;;5037610;28;19916;-85
2021/04/10 14:08:32;;;;;;;;;;;;;;;;;;5036644;28;20381;-84
2021/04/10 14:10:58;;;;;;;;;;;;;;;;;;5053413;28;19923;-83
2021/04/10 14:13:25;;;;;;;;;;;;;;;;;;5053773;28;19936;-82
2021/04/10 14:15:50;;;;;;;;;;;;;;;;;;5058879;28;19920;-84
2021/04/10 14:18:16;;;;;;;;;;;;;;;;;;5108037;28;19912;-83
2021/04/10 14:20:42;;;;;;;;;;;;;;;;;;5080474;28;19917;-82
2021/04/10 14:23:08;;;;;;;;;;;;;;;;;;5050668;28;20398;-81
2021/04/10 14:25:34;;;;;;;;;;;;;;;;;;5050760;28;20054;-83
2021/04/10 14:28:02;;;;;;;;;;;;;;;;;;5067166;28;20330;-86
2021/04/10 14:30:28;;;;;;;;;;;;;;;;;;5036771;28;19919;-83
2021/04/10 14:32:54;;;;;;;;;;;;;;;;;;5054087;28;19920;-84
2021/04/10 14:35:20;;;;;;;;;;;;;;;;;;5071810;28;19940;-85
2021/04/10 14:37:45;;;;;;;;;;;;;;;;;;5071507;28;19919;-84
2021/04/10 14:40:11;;;;;;;;;;;;;;;;;;5071319;28;20290;-84
2021/04/10 14:42:36;;;;;;;;;;;;;;;;;;5054658;28;19921;-81
2021/04/10 14:45:01;;;;;;;;;;;;;;;;;;5053902;28;19913;-83
2021/04/10 14:47:26;;;;;;;;;;;;;;;;;;5070905;28;19917;-82
2021/04/10 14:49:52;;;;;;;;;;;;;;;;;;5065420;28;19916;-82
2021/04/10 14:52:17;;;;;;;;;;;;;;;;;;5071450;28;20302;-82
2021/04/10 14:54:44;;;;;;;;;;;;;;;;;;5042747;28;19920;-83
2021/04/10 14:57:12;;;;;;;;;;;;;;;;;;5075765;28;20340;-82
2021/04/10 14:59:37;;;;;;;;;;;;;;;;;;5075815;28;19912;-83
2021/04/10 15:02:02;;;;;;;;;;;;;;;;;;5054537;28;19920;-84
2021/04/10 15:04:29;;;;;;;;;;;;;;;;;;5072813;28;19917;-84
2021/04/10 15:06:54;;;;;;;;;;;;;;;;;;5040837;28;20374;-82
2021/04/10 15:09:19;;;;;;;;;;;;;;;;;;5073814;28;19923;-84
2021/04/10 15:11:45;;;;;;;;;;;;;;;;;;5056995;28;19912;-84
2021/04/10 15:14:10;;;;;;;;;;;;;;;;;;5054819;28;19928;-85
2021/04/10 15:16:36;;;;;;;;;;;;;;;;;;5050477;28;19912;-81
2021/04/10 15:19:02;;;;;;;;;;;;;;;;;;5092942;28;19912;-82
2021/04/10 15:21:30;;;;;;;;;;;;;;;;;;5092962;28;19913;-83
2021/04/10 15:23:58;;;;;;;;;;;;;;;;;;5110127;28;19919;-82
2021/04/10 15:26:23;;;;;;;;;;;;;;;;;;5077973;28;19977;-83
2021/04/10 15:28:49;;;;;;;;;;;;;;;;;;5039385;28;19912;-81
2021/04/10 15:31:14;;;;;;;;;;;;;;;;;;5055499;28;19916;-86
2021/04/10 15:33:46;;;;;;;;;;;;;;;;;;5056848;28;20135;-86
2021/04/10 15:36:15;;;;;;;;;;;;;;;;;;5057090;28;19920;-87
2021/04/10 15:38:43;;;;;;;;;;;;;;;;;;5057102;28;19916;-89
2021/04/10 15:41:11;;;;;;;;;;;;;;;;;;5056857;28;20430;-89
2021/04/10 15:43:36;;;;;;;;;;;;;;;;;;5056706;28;19920;-86
2021/04/10 15:46:02;;;;;;;;;;;;;;;;;;5054787;28;19966;-85
2021/04/10 15:48:27;;;;;;;;;;;;;;;;;;5056436;28;19913;-87
2021/04/10 15:50:54;;;;;;;;;;;;;;;;;;5039725;28;19974;-84
2021/04/10 15:53:22;;;;;;;;;;;;;;;;;;5077043;28;19916;-85
2021/04/10 15:55:47;;;;;;;;;;;;;;;;;;5072957;28;19916;-86
2021/04/10 15:58:13;;;;;;;;;;;;;;;;;;5056461;28;19980;-87
2021/04/10 16:00:38;;;;;;;;;;;;;;;;;;5055874;28;20012;-85
2021/04/10 16:03:03;;;;;;;;;;;;;;;;;;5080627;28;19916;-87
2021/04/10 16:05:29;;;;;;;;;;;;;;;;;;5056204;28;19916;-84
2021/04/10 16:07:56;;;;;;;;;;;;;;;;;;5055890;28;19913;-85
2021/04/10 16:10:29;;;;;;;;;;;;;;;;;;5056334;28;19965;-87
2021/04/10 16:12:54;;;;;;;;;;;;;;;;;;5056684;28;19932;-88
2021/04/10 16:15:19;;;;;;;;;;;;;;;;;;5073667;28;20499;-88
2021/04/10 16:17:44;;;;;;;;;;;;;;;;;;5109893;28;19912;-87
2021/04/10 16:20:10;;;;;;;;;;;;;;;;;;5088260;28;19916;-87
2021/04/10 16:22:35;;;;;;;;;;;;;;;;;;5039298;28;19990;-87
2021/04/10 16:25:00;;;;;;;;;;;;;;;;;;5056525;28;20312;-88
2021/04/10 16:27:26;;;;;;;;;;;;;;;;;;5056247;28;19917;-87
2021/04/10 16:29:51;;;;;;;;;;;;;;;;;;5056039;28;19912;-92
2021/04/10 16:32:20;;;;;;;;;;;;;;;;;;5039612;28;20012;-89
2021/04/10 16:34:45;;;;;;;;;;;;;;;;;;5040088;28;19912;-90
2021/04/10 16:37:10;;;;;;;;;;;;;;;;;;5039503;28;19917;-89
2021/04/10 16:39:36;;;;;;;;;;;;;;;;;;5039799;28;20420;-87
2021/04/10 16:42:02;;;;;;;;;;;;;;;;;;5038954;28;19913;-87
2021/04/10 16:44:28;;;;;;;;;;;;;;;;;;5039575;28;19939;-89